sensor_id;sensor_type;location;lat;lon;timestamp;pressure;altitude;pressure_sealevel;temperature;humidity
42601;BME280;28229;48.856;9.088;2022-11-20T00:01:04;97437.63;;;3.67;100.00
42601;BME280;28229;48.856;9.088;2022-11-20T00:03:30;97434.06;;;3.68;100.00
42601;BME280;28229;48.856;9.088;2022-11-20T00:06:02;97433.94;;;3.76;100.00
42601;BME280;28229;48.856;9.088;2022-11-20T00:08:29;97435.94;;;3.74;100.00
42601;BME280;28229;48.856;9.088;2022-11-20T00:10:55;97440.31;;;3.74;100.00
42601;BME280;28229;48.856;9.088;2022-11-20T00:13:20;97432.44;;;3.67;100.00
42601;BME280;28229;48.856;9.088;2022-11-20T00:15:46;97438.91;;;3.71;100.00
42601;BME280;28229;48.856;9.088;2022-11-20T00:18:12;97436.31;;;3.71;100.00
42601;BME280;28229;48.856;9.088;2022-11-20T00:20:38;97433.34;;;3.74;100.00
42601;BME280;28229;48.856;9.088;2022-11-20T00:23:04;97430.91;;;3.73;100.00
42601;BME280;28229;48.856;9.088;2022-11-20T00:25:29;97435.72;;;3.76;100.00
42601;BME280;28229;48.856;9.088;2022-11-20T00:27:55;97430.47;;;3.69;100.00
42601;BME280;28229;48.856;9.088;2022-11-20T00:30:21;97430.47;;;3.69;100.00
42601;BME280;28229;48.856;9.088;2022-11-20T00:32:47;97430.41;;;3.62;100.00
42601;BME280;28229;48.856;9.088;2022-11-20T00:35:12;97433.13;;;3.54;100.00
42601;BME280;28229;48.856;9.088;2022-11-20T00:37:38;97430.78;;;3.59;100.00
42601;BME280;28229;48.856;9.088;2022-11-20T00:40:04;97431.19;;;3.63;100.00
42601;BME280;28229;48.856;9.088;2022-11-20T00:42:30;97434.59;;;3.63;100.00
42601;BME280;28229;48.856;9.088;2022-11-20T00:44:58;97437.28;;;3.70;100.00
42601;BME280;28229;48.856;9.088;2022-11-20T00:47:24;97441.69;;;3.70;100.00
42601;BME280;28229;48.856;9.088;2022-11-20T00:49:49;97438.53;;;3.74;100.00
42601;BME280;28229;48.856;9.088;2022-11-20T00:52:15;97434.31;;;3.73;100.00
42601;BME280;28229;48.856;9.088;2022-11-20T00:54:41;97442.47;;;3.70;100.00
42601;BME280;28229;48.856;9.088;2022-11-20T00:57:07;97434.41;;;3.65;100.00
42601;BME280;28229;48.856;9.088;2022-11-20T00:59:32;97436.91;;;3.73;100.00
42601;BME280;28229;48.856;9.088;2022-11-20T01:01:58;97432.66;;;3.66;100.00
42601;BME280;28229;48.856;9.088;2022-11-20T01:04:24;97435.03;;;3.67;100.00
42601;BME280;28229;48.856;9.088;2022-11-20T01:06:50;97432.44;;;3.67;100.00
42601;BME280;28229;48.856;9.088;2022-11-20T01:09:16;97435.94;;;3.74;100.00
42601;BME280;28229;48.856;9.088;2022-11-20T01:11:43;97440.88;;;3.69;100.00
42601;BME280;28229;48.856;9.088;2022-11-20T01:14:11;97437.09;;;3.72;100.00
42601;BME280;28229;48.856;9.088;2022-11-20T01:16:40;97441.34;;;3.79;100.00
42601;BME280;28229;48.856;9.088;2022-11-20T01:19:10;97443.84;;;3.88;100.00
42601;BME280;28229;48.856;9.088;2022-11-20T01:21:39;97451.78;;;3.79;100.00
42601;BME280;28229;48.856;9.088;2022-11-20T01:24:06;97449.81;;;3.81;100.00
42601;BME280;28229;48.856;9.088;2022-11-20T01:26:35;97450.69;;;3.89;100.00
42601;BME280;28229;48.856;9.088;2022-11-20T01:29:02;97449.41;;;3.85;100.00
42601;BME280;28229;48.856;9.088;2022-11-20T01:31:36;97446.44;;;3.88;100.00
42601;BME280;28229;48.856;9.088;2022-11-20T01:34:09;97451.59;;;3.81;100.00
42601;BME280;28229;48.856;9.088;2022-11-20T01:36:36;97448.69;;;3.69;100.00
42601;BME280;28229;48.856;9.088;2022-11-20T01:39:17;97447.31;;;3.73;100.00
42601;BME280;28229;48.856;9.088;2022-11-20T01:41:45;97443.09;;;3.72;100.00
42601;BME280;28229;48.856;9.088;2022-11-20T01:44:47;97448.97;;;3.81;100.00
42601;BME280;28229;48.856;9.088;2022-11-20T01:47:17;97445.22;;;3.84;100.00
42601;BME280;28229;48.856;9.088;2022-11-20T01:49:49;97442.22;;;3.87;100.00
42601;BME280;28229;48.856;9.088;2022-11-20T01:52:20;97442.66;;;3.90;100.00
42601;BME280;28229;48.856;9.088;2022-11-20T01:54:59;97445.09;;;3.92;100.00
42601;BME280;28229;48.856;9.088;2022-11-20T01:57:29;97454.00;;;4.04;100.00
42601;BME280;28229;48.856;9.088;2022-11-20T02:00:01;97451.22;;;4.06;100.00
42601;BME280;28229;48.856;9.088;2022-11-20T02:02:27;97449.66;;;4.11;100.00
42601;BME280;28229;48.856;9.088;2022-11-20T02:04:56;97446.63;;;4.08;100.00
42601;BME280;28229;48.856;9.088;2022-11-20T02:07:24;97453.72;;;4.20;100.00
42601;BME280;28229;48.856;9.088;2022-11-20T02:09:51;97442.94;;;4.24;100.00
42601;BME280;28229;48.856;9.088;2022-11-20T02:12:16;97455.47;;;4.13;100.00
42601;BME280;28229;48.856;9.088;2022-11-20T02:15:01;97447.66;;;4.13;100.00
42601;BME280;28229;48.856;9.088;2022-11-20T02:17:27;97451.13;;;4.20;100.00
42601;BME280;28229;48.856;9.088;2022-11-20T02:19:54;97443.75;;;4.24;100.00
42601;BME280;28229;48.856;9.088;2022-11-20T02:22:32;97442.56;;;4.27;100.00
42601;BME280;28229;48.856;9.088;2022-11-20T02:25:02;97440.94;;;4.26;100.00
42601;BME280;28229;48.856;9.088;2022-11-20T02:27:28;97438.97;;;4.28;100.00
42601;BME280;28229;48.856;9.088;2022-11-20T02:30:00;97438.97;;;4.28;99.83
42601;BME280;28229;48.856;9.088;2022-11-20T02:32:33;97436.00;;;4.31;99.35
42601;BME280;28229;48.856;9.088;2022-11-20T02:35:40;97443.44;;;4.34;98.74
42601;BME280;28229;48.856;9.088;2022-11-20T02:37:59;97437.78;;;4.30;98.42
42601;BME280;28229;48.856;9.088;2022-11-20T02:40:26;97448.88;;;4.39;97.92
42601;BME280;28229;48.856;9.088;2022-11-20T02:42:53;97447.88;;;4.40;97.25
42601;BME280;28229;48.856;9.088;2022-11-20T02:45:19;97449.44;;;4.34;97.74
42601;BME280;28229;48.856;9.088;2022-11-20T02:47:45;97453.47;;;4.37;97.82
42601;BME280;28229;48.856;9.088;2022-11-20T02:50:11;97452.72;;;4.43;97.55
42601;BME280;28229;48.856;9.088;2022-11-20T02:52:37;97446.88;;;4.41;96.89
42601;BME280;28229;48.856;9.088;2022-11-20T02:55:03;97442.91;;;4.45;95.97
42601;BME280;28229;48.856;9.088;2022-11-20T02:57:29;97438.47;;;4.39;96.81
42601;BME280;28229;48.856;9.088;2022-11-20T02:59:55;97447.13;;;4.46;96.13
42601;BME280;28229;48.856;9.088;2022-11-20T03:02:21;97438.94;;;4.49;95.59
42601;BME280;28229;48.856;9.088;2022-11-20T03:04:47;97440.91;;;4.47;95.45
42601;BME280;28229;48.856;9.088;2022-11-20T03:07:13;97436.72;;;4.46;95.45
42601;BME280;28229;48.856;9.088;2022-11-20T03:09:38;97438.53;;;4.46;95.30
42601;BME280;28229;48.856;9.088;2022-11-20T03:12:05;97448.72;;;4.47;95.04
42601;BME280;28229;48.856;9.088;2022-11-20T03:14:31;97446.50;;;4.44;95.71
42601;BME280;28229;48.856;9.088;2022-11-20T03:16:56;97438.69;;;4.44;95.75
42601;BME280;28229;48.856;9.088;2022-11-20T03:19:23;97439.69;;;4.43;94.79
42601;BME280;28229;48.856;9.088;2022-11-20T03:21:49;97437.84;;;4.37;95.72
42601;BME280;28229;48.856;9.088;2022-11-20T03:24:15;97437.84;;;4.37;95.64
42601;BME280;28229;48.856;9.088;2022-11-20T03:26:41;97428.41;;;4.36;95.61
42601;BME280;28229;48.856;9.088;2022-11-20T03:29:06;97428.03;;;4.39;95.68
42601;BME280;28229;48.856;9.088;2022-11-20T03:31:35;97422.22;;;4.37;95.11
42601;BME280;28229;48.856;9.088;2022-11-20T03:34:02;97428.19;;;4.31;95.80
42601;BME280;28229;48.856;9.088;2022-11-20T03:36:29;97432.22;;;4.33;96.10
42601;BME280;28229;48.856;9.088;2022-11-20T03:38:56;97431.03;;;4.36;95.41
42601;BME280;28229;48.856;9.088;2022-11-20T03:41:27;97432.81;;;4.35;95.60
42601;BME280;28229;48.856;9.088;2022-11-20T03:43:56;97423.22;;;4.36;95.58
42601;BME280;28229;48.856;9.088;2022-11-20T03:46:23;97418.78;;;4.36;95.69
42601;BME280;28229;48.856;9.088;2022-11-20T03:48:50;97423.75;;;4.31;95.81
42601;BME280;28229;48.856;9.088;2022-11-20T03:51:21;97418.97;;;4.28;96.67
42601;BME280;28229;48.856;9.088;2022-11-20T03:53:48;97414.53;;;4.29;96.86
42601;BME280;28229;48.856;9.088;2022-11-20T03:56:16;97424.97;;;4.29;96.43
42601;BME280;28229;48.856;9.088;2022-11-20T03:58:43;97430.16;;;4.29;96.17
42601;BME280;28229;48.856;9.088;2022-11-20T04:01:11;97431.38;;;4.26;96.12
42601;BME280;28229;48.856;9.088;2022-11-20T04:03:39;97424.91;;;4.22;96.27
42601;BME280;28229;48.856;9.088;2022-11-20T04:06:48;97427.25;;;4.17;96.83
42601;BME280;28229;48.856;9.088;2022-11-20T04:08:56;97423.06;;;4.16;97.27
42601;BME280;28229;48.856;9.088;2022-11-20T04:11:24;97417.69;;;4.17;96.97
42601;BME280;28229;48.856;9.088;2022-11-20T04:13:55;97420.91;;;4.19;96.63
42601;BME280;28229;48.856;9.088;2022-11-20T04:16:23;97424.22;;;4.13;97.80
42601;BME280;28229;48.856;9.088;2022-11-20T04:18:53;97421.44;;;4.15;96.70
42601;BME280;28229;48.856;9.088;2022-11-20T04:21:19;97417.69;;;4.17;96.74
42601;BME280;28229;48.856;9.088;2022-11-20T04:23:45;97421.63;;;4.13;97.19
42601;BME280;28229;48.856;9.088;2022-11-20T04:26:11;97418.41;;;4.11;98.04
42601;BME280;28229;48.856;9.088;2022-11-20T04:28:38;97416.41;;;4.07;98.31
42601;BME280;28229;48.856;9.088;2022-11-20T04:31:07;97406.78;;;4.07;99.00
42601;BME280;28229;48.856;9.088;2022-11-20T04:33:34;97420.69;;;3.93;99.72
42601;BME280;28229;48.856;9.088;2022-11-20T04:36:02;97413.91;;;3.98;99.48
42601;BME280;28229;48.856;9.088;2022-11-20T04:38:28;97411.94;;;4.00;98.35
42601;BME280;28229;48.856;9.088;2022-11-20T04:40:58;97417.50;;;3.97;98.32
42601;BME280;28229;48.856;9.088;2022-11-20T04:43:24;97408.72;;;3.98;98.19
42601;BME280;28229;48.856;9.088;2022-11-20T04:45:54;97419.91;;;3.99;97.71
42601;BME280;28229;48.856;9.088;2022-11-20T04:48:21;97409.50;;;3.99;97.94
42601;BME280;28229;48.856;9.088;2022-11-20T04:50:46;97416.69;;;3.97;98.58
42601;BME280;28229;48.856;9.088;2022-11-20T04:53:12;97412.53;;;4.03;98.49
42601;BME280;28229;48.856;9.088;2022-11-20T04:55:38;97414.59;;;4.07;97.73
42601;BME280;28229;48.856;9.088;2022-11-20T04:58:04;97423.78;;;4.03;98.31
42601;BME280;28229;48.856;9.088;2022-11-20T05:00:30;97418.13;;;3.99;98.90
42601;BME280;28229;48.856;9.088;2022-11-20T05:02:56;97407.91;;;3.98;99.62
42601;BME280;28229;48.856;9.088;2022-11-20T05:05:22;97414.47;;;3.94;99.74
42601;BME280;28229;48.856;9.088;2022-11-20T05:07:47;97411.13;;;4.00;99.71
42601;BME280;28229;48.856;9.088;2022-11-20T05:10:13;97400.09;;;3.98;100.00
42601;BME280;28229;48.856;9.088;2022-11-20T05:12:39;97404.31;;;3.99;100.00
42601;BME280;28229;48.856;9.088;2022-11-20T05:15:05;97410.28;;;3.93;100.00
42601;BME280;28229;48.856;9.088;2022-11-20T05:17:31;97409.69;;;3.97;100.00
42601;BME280;28229;48.856;9.088;2022-11-20T05:19:57;97414.47;;;3.94;100.00
42601;BME280;28229;48.856;9.088;2022-11-20T05:22:23;97405.69;;;3.95;100.00
42601;BME280;28229;48.856;9.088;2022-11-20T05:24:48;97406.28;;;3.97;100.00
42601;BME280;28229;48.856;9.088;2022-11-20T05:27:14;97408.78;;;4.05;100.00
42601;BME280;28229;48.856;9.088;2022-11-20T05:29:40;97408.41;;;4.08;100.00
42601;BME280;28229;48.856;9.088;2022-11-20T05:32:06;97412.59;;;4.09;100.00
42601;BME280;28229;48.856;9.088;2022-11-20T05:34:34;97415.19;;;4.09;99.20
42601;BME280;28229;48.856;9.088;2022-11-20T05:37:00;97409.63;;;4.12;99.15
42601;BME280;28229;48.856;9.088;2022-11-20T05:39:26;97410.84;;;4.16;99.21
42601;BME280;28229;48.856;9.088;2022-11-20T05:41:52;97413.63;;;4.15;99.10
42601;BME280;28229;48.856;9.088;2022-11-20T05:44:38;97411.47;;;4.18;98.60
42601;BME280;28229;48.856;9.088;2022-11-20T05:47:04;97406.50;;;4.24;98.56
42601;BME280;28229;48.856;9.088;2022-11-20T05:49:29;97410.09;;;4.23;98.25
42601;BME280;28229;48.856;9.088;2022-11-20T05:51:55;97405.28;;;4.19;98.18
42601;BME280;28229;48.856;9.088;2022-11-20T05:54:21;97406.88;;;4.20;98.22
42601;BME280;28229;48.856;9.088;2022-11-20T05:56:47;97408.50;;;4.22;98.56
42601;BME280;28229;48.856;9.088;2022-11-20T05:59:13;97408.50;;;4.22;98.86
42601;BME280;28229;48.856;9.088;2022-11-20T06:01:38;97414.91;;;4.26;98.42
42601;BME280;28229;48.856;9.088;2022-11-20T06:04:04;97404.31;;;4.27;98.40
42601;BME280;28229;48.856;9.088;2022-11-20T06:06:30;97406.00;;;4.35;97.52
42601;BME280;28229;48.856;9.088;2022-11-20T06:08:56;97403.75;;;4.32;97.35
42601;BME280;28229;48.856;9.088;2022-11-20T06:11:24;97395.34;;;4.36;96.92
42601;BME280;28229;48.856;9.088;2022-11-20T06:13:50;97390.97;;;4.37;96.80
42601;BME280;28229;48.856;9.088;2022-11-20T06:16:19;97405.34;;;4.33;97.17
42601;BME280;28229;48.856;9.088;2022-11-20T06:18:46;97404.78;;;4.37;97.05
42601;BME280;28229;48.856;9.088;2022-11-20T06:21:14;97396.19;;;4.37;97.11
42601;BME280;28229;48.856;9.088;2022-11-20T06:23:40;97394.56;;;4.36;97.50
42601;BME280;28229;48.856;9.088;2022-11-20T06:26:09;97394.97;;;4.39;97.19
42601;BME280;28229;48.856;9.088;2022-11-20T06:28:35;97390.19;;;4.43;96.65
42601;BME280;28229;48.856;9.088;2022-11-20T06:31:01;97390.97;;;4.37;97.36
42601;BME280;28229;48.856;9.088;2022-11-20T06:33:27;97398.38;;;4.40;97.06
42601;BME280;28229;48.856;9.088;2022-11-20T06:35:56;97393.94;;;4.34;97.56
42601;BME280;28229;48.856;9.088;2022-11-20T06:38:23;97402.19;;;4.37;97.37
42601;BME280;28229;48.856;9.088;2022-11-20T06:40:49;97399.78;;;4.36;97.76
42601;BME280;28229;48.856;9.088;2022-11-20T06:43:14;97394.44;;;4.44;97.44
42601;BME280;28229;48.856;9.088;2022-11-20T06:45:40;97402.97;;;4.38;97.95
42601;BME280;28229;48.856;9.088;2022-11-20T06:48:06;97401.41;;;4.44;97.64
42601;BME280;28229;48.856;9.088;2022-11-20T06:50:32;97393.59;;;4.44;97.56
42601;BME280;28229;48.856;9.088;2022-11-20T06:53:01;97399.44;;;4.46;97.39
42601;BME280;28229;48.856;9.088;2022-11-20T06:55:28;97401.84;;;4.47;97.36
42601;BME280;28229;48.856;9.088;2022-11-20T06:57:53;97405.44;;;4.46;97.86
42601;BME280;28229;48.856;9.088;2022-11-20T07:00:19;97410.66;;;4.46;97.72
42601;BME280;28229;48.856;9.088;2022-11-20T07:02:45;97403.84;;;4.45;97.98
42601;BME280;28229;48.856;9.088;2022-11-20T07:05:11;97407.47;;;4.51;98.20
42601;BME280;28229;48.856;9.088;2022-11-20T07:07:36;97412.72;;;4.57;98.02
42601;BME280;28229;48.856;9.088;2022-11-20T07:10:03;97400.72;;;4.63;97.84
42601;BME280;28229;48.856;9.088;2022-11-20T07:12:29;97402.72;;;4.61;98.67
42601;BME280;28229;48.856;9.088;2022-11-20T07:14:55;97407.97;;;4.68;97.78
42601;BME280;28229;48.856;9.088;2022-11-20T07:17:21;97406.56;;;4.65;97.76
42601;BME280;28229;48.856;9.088;2022-11-20T07:19:46;97407.97;;;4.68;97.78
42601;BME280;28229;48.856;9.088;2022-11-20T07:22:12;97415.25;;;4.79;97.41
42601;BME280;28229;48.856;9.088;2022-11-20T07:24:38;97412.88;;;4.84;97.39
42601;BME280;28229;48.856;9.088;2022-11-20T07:27:04;97415.91;;;4.88;97.14
42601;BME280;28229;48.856;9.088;2022-11-20T07:29:30;97418.31;;;4.89;97.04
42601;BME280;28229;48.856;9.088;2022-11-20T07:31:56;97422.34;;;4.99;96.38
42601;BME280;28229;48.856;9.088;2022-11-20T07:34:22;97426.22;;;5.03;96.98
42601;BME280;28229;48.856;9.088;2022-11-20T07:36:48;97425.78;;;5.06;97.03
42601;BME280;28229;48.856;9.088;2022-11-20T07:39:14;97424.22;;;5.11;97.90
42601;BME280;28229;48.856;9.088;2022-11-20T07:41:40;97431.06;;;5.19;96.48
42601;BME280;28229;48.856;9.088;2022-11-20T07:44:06;97435.09;;;5.22;96.77
42601;BME280;28229;48.856;9.088;2022-11-20T07:46:31;97429.06;;;5.21;96.46
42601;BME280;28229;48.856;9.088;2022-11-20T07:48:57;97427.47;;;5.20;98.10
42601;BME280;28229;48.856;9.088;2022-11-20T07:51:23;97426.88;;;5.25;97.54
42601;BME280;28229;48.856;9.088;2022-11-20T07:53:52;97432.91;;;5.25;97.24
42601;BME280;28229;48.856;9.088;2022-11-20T07:56:18;97432.69;;;5.27;97.17
42601;BME280;28229;48.856;9.088;2022-11-20T07:58:43;97434.75;;;5.31;97.64
42601;BME280;28229;48.856;9.088;2022-11-20T08:01:09;97436.75;;;5.29;97.68
42601;BME280;28229;48.856;9.088;2022-11-20T08:03:35;97430.91;;;5.34;97.34
42601;BME280;28229;48.856;9.088;2022-11-20T08:06:03;97434.75;;;5.45;95.93
42601;BME280;28229;48.856;9.088;2022-11-20T08:08:29;97439.59;;;5.48;95.49
42601;BME280;28229;48.856;9.088;2022-11-20T08:10:58;97442.00;;;5.49;94.89
42601;BME280;28229;48.856;9.088;2022-11-20T08:13:43;97439.22;;;5.58;94.82
42601;BME280;28229;48.856;9.088;2022-11-20T08:16:28;97443.03;;;5.55;93.77
42601;BME280;28229;48.856;9.088;2022-11-20T08:18:54;97440.63;;;5.60;93.96
42601;BME280;28229;48.856;9.088;2022-11-20T08:21:20;97444.44;;;5.64;93.88
42601;BME280;28229;48.856;9.088;2022-11-20T08:23:45;97442.47;;;5.80;93.08
42601;BME280;28229;48.856;9.088;2022-11-20T08:26:11;97442.69;;;5.85;92.41
42601;BME280;28229;48.856;9.088;2022-11-20T08:28:37;97448.50;;;5.87;92.10
42601;BME280;28229;48.856;9.088;2022-11-20T08:31:03;97444.31;;;5.93;91.18
42601;BME280;28229;48.856;9.088;2022-11-20T08:33:29;97447.75;;;6.00;90.22
42601;BME280;28229;48.856;9.088;2022-11-20T08:36:04;97449.56;;;5.99;90.84
42601;BME280;28229;48.856;9.088;2022-11-20T08:38:31;97446.94;;;6.06;89.85
42601;BME280;28229;48.856;9.088;2022-11-20T08:41:01;97451.78;;;6.16;89.76
42601;BME280;28229;48.856;9.088;2022-11-20T08:43:46;97451.78;;;6.16;89.54
42601;BME280;28229;48.856;9.088;2022-11-20T08:46:12;97458.59;;;6.17;88.65
42601;BME280;28229;48.856;9.088;2022-11-20T08:48:38;97459.44;;;6.24;88.60
42601;BME280;28229;48.856;9.088;2022-11-20T08:51:04;97461.03;;;6.25;87.60
42601;BME280;28229;48.856;9.088;2022-11-20T08:53:30;97469.25;;;6.22;88.19
42601;BME280;28229;48.856;9.088;2022-11-20T08:55:56;97477.91;;;6.22;86.94
42601;BME280;28229;48.856;9.088;2022-11-20T08:58:22;97468.66;;;6.20;88.14
42601;BME280;28229;48.856;9.088;2022-11-20T09:00:48;97471.06;;;6.21;88.80
42601;BME280;28229;48.856;9.088;2022-11-20T09:03:14;97474.69;;;6.27;88.29
42601;BME280;28229;48.856;9.088;2022-11-20T09:05:39;97477.09;;;6.28;88.64
42601;BME280;28229;48.856;9.088;2022-11-20T09:08:05;97473.31;;;6.31;89.77
42601;BME280;28229;48.856;9.088;2022-11-20T09:10:31;97474.88;;;6.32;89.37
42601;BME280;28229;48.856;9.088;2022-11-20T09:12:57;97475.28;;;6.36;89.31
42601;BME280;28229;48.856;9.088;2022-11-20T09:15:25;97478.53;;;6.31;88.89
42601;BME280;28229;48.856;9.088;2022-11-20T09:17:55;97485.72;;;6.29;88.73
42601;BME280;28229;48.856;9.088;2022-11-20T09:20:21;97474.69;;;6.27;89.57
42601;BME280;28229;48.856;9.088;2022-11-20T09:22:47;97482.72;;;6.32;90.13
42601;BME280;28229;48.856;9.088;2022-11-20T09:25:13;97482.53;;;6.27;89.46
42601;BME280;28229;48.856;9.088;2022-11-20T09:27:39;97483.53;;;6.26;89.78
42601;BME280;28229;48.856;9.088;2022-11-20T09:30:07;97489.78;;;6.32;89.91
42601;BME280;28229;48.856;9.088;2022-11-20T09:32:33;97491.78;;;6.23;90.72
42601;BME280;28229;48.856;9.088;2022-11-20T09:34:59;97494.97;;;6.25;91.03
42601;BME280;28229;48.856;9.088;2022-11-20T09:37:32;97504.44;;;6.26;90.85
42601;BME280;28229;48.856;9.088;2022-11-20T09:39:58;97497.00;;;6.23;90.80
42601;BME280;28229;48.856;9.088;2022-11-20T09:42:36;97489.75;;;6.25;90.85
42601;BME280;28229;48.856;9.088;2022-11-20T09:50:45;97510.06;;;6.29;91.02
42601;BME280;28229;48.856;9.088;2022-11-20T09:55:50;97506.66;;;6.22;92.95
42601;BME280;28229;48.856;9.088;2022-11-20T09:58:26;97508.44;;;6.22;93.27
42601;BME280;28229;48.856;9.088;2022-11-20T10:01:00;97500.41;;;6.10;94.00
42601;BME280;28229;48.856;9.088;2022-11-20T10:03:40;97502.81;;;6.12;92.96
42601;BME280;28229;48.856;9.088;2022-11-20T10:06:12;97505.63;;;6.10;93.99
42601;BME280;28229;48.856;9.088;2022-11-20T10:08:44;97498.00;;;6.15;92.56
42601;BME280;28229;48.856;9.088;2022-11-20T10:22:40;97507.22;;;5.98;97.21
42601;BME280;28229;48.856;9.088;2022-11-20T10:25:18;97509.63;;;6.06;98.03
42601;BME280;28229;48.856;9.088;2022-11-20T10:28:21;97516.25;;;6.08;96.66
42601;BME280;28229;48.856;9.088;2022-11-20T10:30:59;97510.44;;;6.06;96.67
42601;BME280;28229;48.856;9.088;2022-11-20T10:33:30;97505.59;;;6.03;95.48
42601;BME280;28229;48.856;9.088;2022-11-20T10:36:17;97515.84;;;5.98;94.25
42601;BME280;28229;48.856;9.088;2022-11-20T10:38:57;97511.25;;;6.07;95.06
42601;BME280;28229;48.856;9.088;2022-11-20T10:41:31;97518.81;;;5.95;94.38
42601;BME280;28229;48.856;9.088;2022-11-20T10:44:43;97505.94;;;5.87;94.27
42601;BME280;28229;48.856;9.088;2022-11-20T10:47:05;97504.94;;;5.88;95.48
42601;BME280;28229;48.856;9.088;2022-11-20T10:49:35;97512.16;;;5.86;96.26
42601;BME280;28229;48.856;9.088;2022-11-20T11:00:14;97504.03;;;6.16;99.82
42601;BME280;28229;48.856;9.088;2022-11-20T11:02:53;97494.78;;;6.20;99.21
42601;BME280;28229;48.856;9.088;2022-11-20T11:05:50;97500.41;;;6.23;98.05
42601;BME280;28229;48.856;9.088;2022-11-20T11:08:19;97500.00;;;6.20;98.09
42601;BME280;28229;48.856;9.088;2022-11-20T11:10:53;97487.53;;;6.22;98.20
42601;BME280;28229;48.856;9.088;2022-11-20T11:13:25;97490.38;;;6.20;99.16
42601;BME280;28229;48.856;9.088;2022-11-20T11:15:52;97488.75;;;6.26;98.59
42601;BME280;28229;48.856;9.088;2022-11-20T11:18:29;97481.72;;;6.33;98.74
42601;BME280;28229;48.856;9.088;2022-11-20T11:20:58;97483.72;;;6.44;96.03
42601;BME280;28229;48.856;9.088;2022-11-20T11:23:42;97467.03;;;6.59;94.85
42601;BME280;28229;48.856;9.088;2022-11-20T11:26:22;97469.41;;;6.80;94.36
42601;BME280;28229;48.856;9.088;2022-11-20T11:29:02;97463.50;;;7.18;91.48
42601;BME280;28229;48.856;9.088;2022-11-20T11:31:30;97457.31;;;7.51;91.00
42601;BME280;28229;48.856;9.088;2022-11-20T11:36:34;97458.09;;;7.90;85.87
42601;BME280;28229;48.856;9.088;2022-11-20T11:39:02;97456.31;;;7.84;84.22
42601;BME280;28229;48.856;9.088;2022-11-20T11:41:32;97451.44;;;7.88;84.48
42601;BME280;28229;48.856;9.088;2022-11-20T11:44:17;97452.34;;;8.07;85.23
42601;BME280;28229;48.856;9.088;2022-11-20T11:47:03;97439.03;;;8.33;83.15
42601;BME280;28229;48.856;9.088;2022-11-20T11:49:31;97438.63;;;8.62;83.12
42601;BME280;28229;48.856;9.088;2022-11-20T11:52:15;97432.56;;;8.98;79.54
42601;BME280;28229;48.856;9.088;2022-11-20T11:55:03;97420.13;;;9.42;81.74
42601;BME280;28229;48.856;9.088;2022-11-20T11:57:47;97425.53;;;9.78;75.01
42601;BME280;28229;48.856;9.088;2022-11-20T12:00:18;97429.72;;;9.67;72.46
42601;BME280;28229;48.856;9.088;2022-11-20T12:05:22;97429.28;;;9.70;70.49
42601;BME280;28229;48.856;9.088;2022-11-20T12:08:03;97427.94;;;9.79;69.08
42601;BME280;28229;48.856;9.088;2022-11-20T12:10:52;97417.34;;;9.86;68.77
42601;BME280;28229;48.856;9.088;2022-11-20T12:16:00;97421.97;;;9.72;67.08
42601;BME280;28229;48.856;9.088;2022-11-20T12:18:28;97420.13;;;9.61;65.27
42601;BME280;28229;48.856;9.088;2022-11-20T12:26:13;97408.25;;;10.24;63.73
42601;BME280;28229;48.856;9.088;2022-11-20T12:29:10;97414.69;;;10.40;62.04
42601;BME280;28229;48.856;9.088;2022-11-20T12:34:43;97392.81;;;10.04;58.95
42601;BME280;28229;48.856;9.088;2022-11-20T12:39:50;97406.31;;;10.31;58.10
42601;BME280;28229;48.856;9.088;2022-11-20T12:42:35;97403.72;;;10.43;60.06
42601;BME280;28229;48.856;9.088;2022-11-20T12:45:35;97395.47;;;10.51;57.39
42601;BME280;28229;48.856;9.088;2022-11-20T12:53:35;97395.81;;;10.43;56.45
42601;BME280;28229;48.856;9.088;2022-11-20T13:01:43;97397.38;;;10.67;55.29
42601;BME280;28229;48.856;9.088;2022-11-20T13:05:03;97411.59;;;10.66;57.02
42601;BME280;28229;48.856;9.088;2022-11-20T13:07:05;97412.25;;;10.62;58.14
42601;BME280;28229;48.856;9.088;2022-11-20T13:09:40;97409.97;;;10.65;57.48
42601;BME280;28229;48.856;9.088;2022-11-20T13:12:18;97412.84;;;10.52;58.41
42601;BME280;28229;48.856;9.088;2022-11-20T13:17:36;97412.97;;;10.57;57.99
42601;BME280;28229;48.856;9.088;2022-11-20T13:20:06;97399.00;;;10.69;57.02
42601;BME280;28229;48.856;9.088;2022-11-20T13:22:55;97397.53;;;10.61;56.25
42601;BME280;28229;48.856;9.088;2022-11-20T13:25:36;97405.94;;;10.75;56.18
42601;BME280;28229;48.856;9.088;2022-11-20T13:30:35;97398.06;;;10.75;54.24
42601;BME280;28229;48.856;9.088;2022-11-20T13:33:09;97385.94;;;10.85;55.31
42601;BME280;28229;48.856;9.088;2022-11-20T13:36:05;97380.28;;;11.05;54.74
42601;BME280;28229;48.856;9.088;2022-11-20T13:38:48;97381.81;;;10.78;54.80
42601;BME280;28229;48.856;9.088;2022-11-20T13:43:58;97380.03;;;10.43;55.08
42601;BME280;28229;48.856;9.088;2022-11-20T13:46:39;97378.19;;;10.32;56.96
42601;BME280;28229;48.856;9.088;2022-11-20T13:49:08;97370.03;;;9.98;56.98
42601;BME280;28229;48.856;9.088;2022-11-20T13:51:41;97377.22;;;9.90;57.63
42601;BME280;28229;48.856;9.088;2022-11-20T13:57:34;97387.06;;;9.23;58.60
42601;BME280;28229;48.856;9.088;2022-11-20T14:00:16;97387.41;;;8.96;61.20
42601;BME280;28229;48.856;9.088;2022-11-20T14:02:43;97388.88;;;8.73;61.09
42601;BME280;28229;48.856;9.088;2022-11-20T14:05:21;97383.91;;;8.65;62.89
42601;BME280;28229;48.856;9.088;2022-11-20T14:07:49;97386.53;;;8.65;63.83
42601;BME280;28229;48.856;9.088;2022-11-20T14:10:24;97381.16;;;8.60;64.23
42601;BME280;28229;48.856;9.088;2022-11-20T14:12:51;97375.44;;;8.45;65.12
42601;BME280;28229;48.856;9.088;2022-11-20T14:15:43;97376.56;;;8.30;66.40
42601;BME280;28229;48.856;9.088;2022-11-20T14:18:20;97371.28;;;8.12;67.82
42601;BME280;28229;48.856;9.088;2022-11-20T14:20:49;97374.13;;;7.85;69.18
42601;BME280;28229;48.856;9.088;2022-11-20T14:23:24;97375.25;;;7.71;69.66
42601;BME280;28229;48.856;9.088;2022-11-20T14:25:50;97372.09;;;7.55;70.17
42601;BME280;28229;48.856;9.088;2022-11-20T14:28:25;97381.03;;;7.48;69.50
42601;BME280;28229;48.856;9.088;2022-11-20T14:30:52;97374.22;;;7.40;70.04